East Orange, NJ

1:40 PM EDT on October 21, 2014 (GMT -0400)
University Heights | Change Station
CLOSE
Current Station
Personal Weather Station
Location: Newark, NJ
Elevation: 177 ft
Nearby Weather Stations

Elev 177 ft 40.74 °N, 74.19 °W | Updated 1 second ago

Overcast
Overcast
63.6 °F
Feels Like 63.6 °F
N
1.8
Wind Variable Wind from NNW
Gusts 2.0 mph

Today
High -- | Low -- °F
--% Chance of Precip.
Yesterday
High -- | Low -- °F
Precip. -- in
7:14 AM 6:07 PM
Waning Crescent, 5% visible
Pressure 29.86 in
Visibility 10.0 miles
Clouds Few 2800 ft
Mostly Cloudy 5500 ft
Mostly Cloudy 9000 ft
Mostly Cloudy 25000 ft
Dew Point 57 °F
Humidity 78%
Rainfall 0.00 in
Snow Depth Not available.
UV 3 out of 12
Pollen .70 out of 12
Air Quality Not available.
Flu Activity Sporadic
METAR KEWR 211651Z 11006KT 10SM FEW028 BKN055 BKN090 BKN250 18/11 A2985 RMK AO2 SLP109 T01830106

More Conditions Fewer Conditions

Pressure 29.86 in
Visibility 10.0 miles
Clouds Few 2800 ft
Mostly Cloudy 5500 ft
Mostly Cloudy 9000 ft
Mostly Cloudy 25000 ft
Dew Point 57 °F
Humidity 78%
Rainfall 0.00 in
Snow Depth Not available.
UV 3 out of 12
Pollen .70 out of 12
Air Quality Not available.
Flu Activity Sporadic
METAR KEWR 211651Z 11006KT 10SM FEW028 BKN055 BKN090 BKN250 18/11 A2985 RMK AO2 SLP109 T01830106

More Conditions Fewer Conditions

10-Day Weather Forecast

Almanac

Astronomy

Oct. 21, 2014 Rise Set
Actual Time 7:14 AM EDT 6:07 PM EDT
Civil Twilight 6:46 AM EDT 6:35 PM EDT
Nautical Twilight 6:14 AM EDT 7:07 PM EDT
Astronomical Twilight 5:43 AM EDT 7:39 PM EDT
Moon 4:55 AM EDT 5:00 PM EDT
Length of Visible Light 11h 48m
Length of Day
10h 53m
Tomorrow will be 2m 33s shorter.
Waning Crescent, 5% of the Moon is Illuminated
Today
Waning Crescent
Oct 23
New
Oct 30
First Quarter
Nov 6
Full
Nov 14
Last Quarter

Today's Extremes

State Highs State Lows

Community

WunderPhotos

Upload Photos

1,763,733 photos uploaded!

Nearby

Snow Depth

Station Depth Elevation
No new snow has been reported.

Earthquake Activity

City Distance Mag. Time & Date
No recent earthquake activity has been reported nearby.
Minimum magnitude displayed is 2.5.

Coastal Water Temperatures

Place Temperature
Sandy Hook, NJ 60.1 °F
The Battery, NY 63.0 °F
Bergen Point West Reach, NJ 63.0 °F
Kings Point, NY 60.1 °F

Nearby Weather Stations